Time;durP1;ratioP1;P1;durP2;ratioP2;P2;SDS_P1;SDS_P2;PMS_P1;PMS_P2;Temp;Humidity;BMP_temperature;BMP_pressure;BME280_temperature;BME280_humidity;BME280_pressure;Samples;Min_cycle;Max_cycle;Signal;HPM_P1;HPM_P2
2021/09/27 00:00:43;;;;;;;10.05;7.70;;;18.20;99.90;;;;;;12517496;28;20049;-42
2021/09/27 00:06:45;;;;;;;13.02;9.07;;;18.20;99.90;;;;;;12506365;28;20080;-40
2021/09/27 00:12:47;;;;;;;13.52;8.43;;;18.20;99.90;;;;;;12516070;28;20113;-39
2021/09/27 00:18:49;;;;;;;10.98;8.38;;;18.20;99.90;;;;;;12512405;28;20098;-39
2021/09/27 00:24:51;;;;;;;13.57;8.50;;;18.10;99.90;;;;;;12510116;28;20091;-39
2021/09/27 00:30:53;;;;;;;13.63;9.15;;;18.20;99.90;;;;;;12504422;28;20079;-36
2021/09/27 00:36:55;;;;;;;14.55;9.02;;;18.10;99.90;;;;;;12512752;28;20049;-35
2021/09/27 00:42:58;;;;;;;12.43;9.05;;;18.10;99.90;;;;;;12517763;28;20107;-39
2021/09/27 00:49:01;;;;;;;12.57;8.70;;;18.20;99.90;;;;;;12513425;28;20083;-35
2021/09/27 00:55:07;;;;;;;11.98;8.63;;;18.10;99.90;;;;;;12515239;28;20079;-39
2021/09/27 01:01:09;;;;;;;11.60;8.80;;;18.10;99.90;;;;;;12514552;28;20476;-35
2021/09/27 01:07:21;;;;;;;10.32;8.23;;;18.10;99.90;;;;;;12516589;28;20076;-35
2021/09/27 01:13:40;;;;;;;15.75;9.23;;;18.10;99.90;;;;;;12514478;28;20576;-36
2021/09/27 01:20:07;;;;;;;10.30;8.73;;;18.00;99.90;;;;;;12516024;28;20057;-35
2021/09/27 01:26:17;;;;;;;12.35;9.63;;;18.00;99.90;;;;;;12513252;28;20049;-35
2021/09/27 01:32:37;;;;;;;13.13;9.57;;;18.00;99.90;;;;;;12510595;28;20104;-40
2021/09/27 01:38:49;;;;;;;10.77;9.35;;;17.90;99.90;;;;;;12513278;28;20584;-40
2021/09/27 01:45:18;;;;;;;11.55;9.07;;;18.00;99.90;;;;;;12509865;28;20472;-39
2021/09/27 01:51:33;;;;;;;12.52;10.15;;;17.90;99.90;;;;;;12521706;28;20057;-35
2021/09/27 01:57:53;;;;;;;14.48;10.02;;;17.90;99.90;;;;;;12524736;28;20118;-41
2021/09/27 02:04:04;;;;;;;12.88;9.73;;;17.90;99.90;;;;;;12517820;28;20048;-39
2021/09/27 02:10:23;;;;;;;13.45;9.10;;;17.90;99.90;;;;;;12521956;28;20041;-36
2021/09/27 02:17:06;;;;;;;14.15;10.25;;;17.90;99.90;;;;;;12521079;28;20123;-40
2021/09/27 02:23:31;;;;;;;14.53;10.43;;;17.90;99.90;;;;;;12519574;28;20048;-41
2021/09/27 02:29:33;;;;;;;12.50;9.60;;;17.90;99.90;;;;;;12520933;28;20060;-35
2021/09/27 02:36:07;;;;;;;14.93;10.82;;;17.90;99.90;;;;;;12520930;28;20102;-35
2021/09/27 02:42:18;;;;;;;13.90;10.77;;;17.80;99.90;;;;;;12521110;28;20048;-35
2021/09/27 02:48:34;;;;;;;14.10;10.65;;;17.80;99.90;;;;;;12515788;28;20084;-40
2021/09/27 02:54:41;;;;;;;15.20;11.18;;;17.80;99.90;;;;;;12519529;28;20176;-40
2021/09/27 03:01:04;;;;;;;13.82;10.65;;;17.80;99.90;;;;;;12521392;28;20068;-38
2021/09/27 03:07:34;;;;;;;14.13;10.68;;;17.80;99.90;;;;;;12520267;28;20057;-39
2021/09/27 03:13:54;;;;;;;15.82;10.48;;;17.70;99.90;;;;;;12519227;28;20468;-40
2021/09/27 03:20:35;;;;;;;14.93;11.75;;;17.70;99.90;;;;;;12519656;28;20111;-35
2021/09/27 03:26:46;;;;;;;15.55;11.88;;;17.60;99.90;;;;;;12499234;28;20911;-40
2021/09/27 03:33:05;;;;;;;13.77;11.63;;;17.70;99.90;;;;;;12518747;28;20106;-40
2021/09/27 03:40:02;;;;;;;16.67;11.70;;;17.60;99.90;;;;;;12511938;28;20094;-35
2021/09/27 03:46:37;;;;;;;16.88;12.00;;;17.60;99.90;;;;;;12492804;28;20098;-39
2021/09/27 03:52:54;;;;;;;15.55;12.45;;;17.60;99.90;;;;;;12515390;28;20052;-35
2021/09/27 03:59:12;;;;;;;18.50;12.25;;;17.60;99.90;;;;;;12517392;28;20080;-36
2021/09/27 04:05:34;;;;;;;17.15;13.05;;;17.50;99.90;;;;;;12518973;28;20418;-39
2021/09/27 04:12:04;;;;;;;16.40;11.65;;;17.50;99.90;;;;;;12519556;28;20517;-41
2021/09/27 04:18:37;;;;;;;15.98;12.80;;;17.50;99.90;;;;;;12518662;28;20060;-35
2021/09/27 04:24:58;;;;;;;16.77;12.20;;;17.50;99.90;;;;;;12513904;28;20147;-39
2021/09/27 04:31:12;;;;;;;16.85;13.10;;;17.40;99.90;;;;;;12517278;28;20084;-35
2021/09/27 04:37:17;;;;;;;15.18;11.70;;;17.40;99.90;;;;;;12517084;28;20140;-40
2021/09/27 04:43:33;;;;;;;16.23;12.80;;;17.30;99.90;;;;;;12499949;28;20139;-41
2021/09/27 04:50:02;;;;;;;15.90;12.55;;;17.30;99.90;;;;;;12493210;28;20653;-35
2021/09/27 04:56:11;;;;;;;14.48;12.05;;;17.20;99.90;;;;;;12517869;28;20045;-40
2021/09/27 05:02:35;;;;;;;16.73;12.38;;;17.20;99.90;;;;;;12518962;28;20051;-35
2021/09/27 05:08:37;;;;;;;14.40;12.27;;;17.10;99.90;;;;;;12518109;28;20057;-35
2021/09/27 05:14:47;;;;;;;16.00;12.57;;;17.00;99.90;;;;;;12517436;28;20153;-35
2021/09/27 05:21:17;;;;;;;16.98;13.02;;;17.00;99.90;;;;;;12512486;28;20060;-35
2021/09/27 05:27:42;;;;;;;16.58;12.27;;;16.90;99.90;;;;;;12525202;28;20044;-36
2021/09/27 05:34:16;;;;;;;17.48;12.63;;;16.90;99.90;;;;;;12524350;28;20060;-35
2021/09/27 05:41:07;;;;;;;16.70;12.85;;;16.90;99.90;;;;;;12523950;28;20045;-35
2021/09/27 05:47:26;;;;;;;20.88;12.52;;;16.90;99.90;;;;;;12481855;28;20423;-40
2021/09/27 05:53:44;;;;;;;15.70;12.30;;;16.80;99.90;;;;;;12530856;28;20045;-35
2021/09/27 05:59:56;;;;;;;18.90;11.65;;;16.90;99.90;;;;;;12529654;28;21644;-40
2021/09/27 06:06:11;;;;;;;14.90;12.35;;;16.80;99.90;;;;;;12526507;28;20049;-40
2021/09/27 06:12:55;;;;;;;16.90;13.30;;;16.80;99.90;;;;;;12525912;28;20144;-40
2021/09/27 06:19:20;;;;;;;24.02;13.18;;;16.80;99.90;;;;;;12529737;28;20422;-40
2021/09/27 06:25:37;;;;;;;;;;;16.80;99.90;;;;;;12526454;28;20045;-39
2021/09/27 06:31:54;;;;;;;18.27;12.90;;;16.80;99.90;;;;;;12522134;28;20418;-35
2021/09/27 06:38:03;;;;;;;15.32;11.75;;;16.90;99.90;;;;;;12524552;28;20053;-35
2021/09/27 06:44:05;;;;;;;14.35;11.77;;;16.90;99.90;;;;;;12526386;28;20145;-40
2021/09/27 06:50:09;;;;;;;16.10;12.30;;;17.00;99.90;;;;;;12524076;28;20075;-39
2021/09/27 06:56:11;;;;;;;13.68;11.88;;;17.10;99.90;;;;;;12522702;28;20057;-39
2021/09/27 07:02:14;;;;;;;14.48;10.65;;;17.10;99.90;;;;;;12524949;28;20094;-39
2021/09/27 07:08:20;;;;;;;15.60;10.15;;;17.20;99.90;;;;;;12523782;28;20049;-35
2021/09/27 07:14:22;;;;;;;14.73;10.15;;;17.40;99.90;;;;;;12523513;28;20045;-41
2021/09/27 07:20:26;;;;;;;13.15;9.85;;;17.50;99.90;;;;;;12523656;28;20094;-39
2021/09/27 07:26:28;;;;;;;14.70;10.52;;;17.70;99.90;;;;;;12522501;28;20099;-40
2021/09/27 07:32:31;;;;;;;13.38;9.40;;;17.60;99.90;;;;;;12522165;28;20220;-35
2021/09/27 07:38:34;;;;;;;16.27;9.80;;;17.70;99.90;;;;;;12521202;28;20057;-41
2021/09/27 07:44:36;;;;;;;13.27;9.43;;;17.60;99.90;;;;;;12522042;28;20048;-35
2021/09/27 07:50:43;;;;;;;14.43;9.07;;;17.80;99.90;;;;;;12517232;28;20501;-35
2021/09/27 07:56:45;;;;;;;14.45;10.13;;;17.80;99.90;;;;;;12520937;28;20137;-39
2021/09/27 08:02:48;;;;;;;14.52;9.55;;;17.90;99.90;;;;;;12519066;28;20041;-35
2021/09/27 08:08:50;;;;;;;10.82;8.88;;;18.10;99.90;;;;;;12525433;28;20076;-40
2021/09/27 08:14:54;;;;;;;12.85;8.77;;;18.30;99.90;;;;;;12520788;28;20049;-36
2021/09/27 08:20:59;;;;;;;;;;;18.50;99.90;;;;;;12515632;28;20049;-36
2021/09/27 08:27:01;;;;;;;11.98;8.20;;;18.60;99.90;;;;;;12525121;28;19926;-39
2021/09/27 08:33:04;;;;;;;10.10;7.25;;;18.60;99.90;;;;;;12518954;28;20094;-44
2021/09/27 08:39:09;;;;;;;9.00;6.07;;;18.70;99.90;;;;;;12520344;28;20121;-36
2021/09/27 08:45:27;;;;;;;12.27;6.93;;;18.90;99.90;;;;;;12517253;28;20049;-36
2021/09/27 08:51:31;;;;;;;13.48;7.35;;;18.90;99.90;;;;;;12521619;28;20075;-40
2021/09/27 08:57:38;;;;;;;9.45;5.90;;;19.10;99.90;;;;;;12519987;28;20052;-35
2021/09/27 09:03:57;;;;;;;8.75;5.50;;;19.20;99.90;;;;;;12527124;28;20040;-35
2021/09/27 09:10:08;;;;;;;8.63;4.90;;;19.40;99.90;;;;;;12525572;28;20084;-35
2021/09/27 09:16:16;;;;;;;10.57;5.55;;;19.50;99.90;;;;;;12529623;28;20061;-40
2021/09/27 09:22:28;;;;;;;8.23;5.63;;;19.80;99.90;;;;;;12525292;28;20709;-36
2021/09/27 09:28:31;;;;;;;9.48;5.22;;;19.80;99.90;;;;;;12525849;28;20190;-40
2021/09/27 09:34:35;;;;;;;10.52;5.47;;;19.80;99.90;;;;;;12526494;28;20133;-39
2021/09/27 09:40:55;;;;;;;7.13;4.40;;;20.10;99.90;;;;;;12525037;28;20082;-40
2021/09/27 09:47:00;;;;;;;9.63;5.15;;;20.30;99.90;;;;;;12529674;28;20109;-40
2021/09/27 09:53:22;;;;;;;9.23;4.88;;;20.20;99.90;;;;;;12526807;28;20056;-40
2021/09/27 09:59:34;;;;;;;7.03;5.35;;;20.20;99.90;;;;;;12526573;28;20106;-36
2021/09/27 10:05:42;;;;;;;8.00;5.30;;;20.30;99.90;;;;;;12523571;28;20115;-35
2021/09/27 10:11:54;;;;;;;9.50;5.78;;;20.60;99.90;;;;;;12525606;28;20056;-36
2021/09/27 10:18:10;;;;;;;7.95;6.15;;;20.50;99.90;;;;;;12528258;28;20061;-38
2021/09/27 10:24:43;;;;;;;8.60;5.68;;;20.60;99.90;;;;;;12519904;28;20455;-35
2021/09/27 10:30:57;;;;;;;8.40;5.90;;;21.00;99.90;;;;;;12523786;28;20080;-37
2021/09/27 10:37:18;;;;;;;8.35;5.85;;;20.90;99.90;;;;;;12524143;28;20048;-40
2021/09/27 10:43:25;;;;;;;8.45;5.93;;;20.90;99.90;;;;;;12524928;28;20049;-42
2021/09/27 10:49:39;;;;;;;7.80;5.53;;;21.20;99.90;;;;;;12525134;28;20036;-38
2021/09/27 10:56:22;;;;;;;7.85;5.72;;;21.70;99.90;;;;;;12520683;28;20049;-36
2021/09/27 11:02:40;;;;;;;7.05;5.85;;;21.70;99.90;;;;;;12523347;28;20045;-35
2021/09/27 11:08:45;;;;;;;8.20;5.70;;;21.30;99.90;;;;;;12530237;28;20550;-42
2021/09/27 11:14:59;;;;;;;6.95;5.18;;;21.00;99.90;;;;;;12518816;28;20049;-40
2021/09/27 11:21:41;;;;;;;7.45;5.90;;;21.10;99.90;;;;;;12525551;28;20048;-38
2021/09/27 11:28:15;;;;;;;7.63;5.65;;;21.20;99.90;;;;;;12521351;28;20422;-36
2021/09/27 11:34:48;;;;;;;6.53;4.95;;;21.30;99.90;;;;;;12508335;28;20527;-40
2021/09/27 11:41:03;;;;;;;7.63;5.75;;;21.80;99.90;;;;;;12500719;28;20064;-40
2021/09/27 11:47:56;;;;;;;6.20;5.03;;;22.20;99.90;;;;;;12521362;28;20041;-36
2021/09/27 11:54:14;;;;;;;6.22;4.95;;;22.80;99.90;;;;;;12524842;28;20170;-36
2021/09/27 12:00:23;;;;;;;7.57;5.00;;;22.80;99.90;;;;;;12520440;28;20547;-36
2021/09/27 12:06:40;;;;;;;5.93;5.00;;;22.80;99.90;;;;;;12520003;28;20113;-40
2021/09/27 12:12:51;;;;;;;7.03;5.47;;;22.00;99.90;;;;;;12519320;28;20045;-35
2021/09/27 12:18:59;;;;;;;6.43;5.10;;;21.50;99.90;;;;;;12519858;28;20087;-39
2021/09/27 12:25:19;;;;;;;7.28;5.18;;;21.60;99.90;;;;;;12516738;28;20076;-36
2021/09/27 12:31:28;;;;;;;6.65;4.70;;;22.10;99.90;;;;;;12515705;28;20044;-40
2021/09/27 12:37:37;;;;;;;6.68;4.35;;;22.20;99.90;;;;;;12520069;28;20061;-36
2021/09/27 12:43:40;;;;;;;5.35;4.45;;;22.30;99.90;;;;;;12518944;28;20139;-35
2021/09/27 12:49:55;;;;;;;7.45;4.70;;;22.20;99.90;;;;;;12521940;28;20056;-38
2021/09/27 12:55:58;;;;;;;7.43;4.43;;;22.10;99.90;;;;;;12518918;28;20143;-36
2021/09/27 13:02:04;;;;;;;5.70;3.97;;;22.50;99.90;;;;;;12519266;28;20052;-37
2021/09/27 13:08:21;;;;;;;10.55;4.15;;;22.60;99.90;;;;;;12518882;28;20049;-35
2021/09/27 13:14:29;;;;;;;5.88;3.90;;;22.30;99.90;;;;;;12523647;28;20083;-40
2021/09/27 13:20:42;;;;;;;5.65;3.78;;;22.00;99.90;;;;;;12519669;28;20140;-40
2021/09/27 13:27:03;;;;;;;6.88;5.00;;;21.70;99.90;;;;;;12521951;28;20094;-40
2021/09/27 13:33:29;;;;;;;6.00;5.38;;;21.40;99.90;;;;;;12517732;28;20067;-40
2021/09/27 13:39:40;;;;;;;6.57;5.15;;;21.10;99.90;;;;;;12520971;28;20115;-36
2021/09/27 13:45:43;;;;;;;9.48;5.35;;;21.00;99.90;;;;;;12525340;28;20050;-36
2021/09/27 13:51:46;;;;;;;5.90;4.47;;;21.00;99.90;;;;;;12531142;28;20061;-40
2021/09/27 13:57:54;;;;;;;;;;;21.00;99.90;;;;;;12528281;28;20492;-36
2021/09/27 14:04:08;;;;;;;4.90;3.60;;;21.00;99.90;;;;;;12526181;28;21305;-36
2021/09/27 14:10:18;;;;;;;8.33;2.70;;;21.00;99.90;;;;;;12528490;28;20057;-40
2021/09/27 14:16:38;;;;;;;5.60;2.83;;;21.10;99.90;;;;;;12527623;28;20159;-35
2021/09/27 14:22:40;;;;;;;4.78;2.20;;;21.10;99.90;;;;;;12530425;28;20502;-39
2021/09/27 14:28:52;;;;;;;6.85;2.50;;;21.00;99.90;;;;;;12526416;28;20061;-40
2021/09/27 14:35:07;;;;;;;5.70;2.40;;;21.00;99.90;;;;;;12516521;28;20052;-36
2021/09/27 14:41:09;;;;;;;6.88;2.35;;;21.00;99.90;;;;;;12527193;28;20049;-40
2021/09/27 14:47:21;;;;;;;6.78;2.10;;;20.80;99.90;;;;;;12523082;28;20110;-41
2021/09/27 14:53:28;;;;;;;4.05;2.22;;;20.80;99.90;;;;;;12521314;28;20863;-41
2021/09/27 14:59:31;;;;;;;3.83;2.13;;;20.80;99.90;;;;;;12526214;28;20079;-35
2021/09/27 15:05:34;;;;;;;4.30;1.85;;;20.70;99.90;;;;;;12523135;28;20050;-36
2021/09/27 15:11:36;;;;;;;3.97;1.83;;;20.60;99.90;;;;;;12507470;28;20052;-40
2021/09/27 15:17:38;;;;;;;5.07;2.05;;;20.50;99.90;;;;;;12524298;28;20083;-40
2021/09/27 15:23:43;;;;;;;3.58;1.92;;;20.40;99.90;;;;;;12515087;28;20048;-36
2021/09/27 15:29:45;;;;;;;2.58;1.88;;;20.30;99.90;;;;;;12526518;28;20053;-36
2021/09/27 15:35:53;;;;;;;3.80;2.00;;;20.30;99.90;;;;;;12522196;28;20048;-36
2021/09/27 15:41:58;;;;;;;3.33;1.90;;;20.20;99.90;;;;;;12519088;28;20041;-35
2021/09/27 15:48:00;;;;;;;4.75;1.92;;;20.10;99.90;;;;;;12520902;28;20068;-35
2021/09/27 15:54:03;;;;;;;4.45;2.15;;;20.10;99.90;;;;;;12522281;28;20048;-40
2021/09/27 16:00:06;;;;;;;3.42;1.83;;;20.00;99.90;;;;;;12517909;28;20140;-36
2021/09/27 16:06:12;;;;;;;4.05;2.00;;;20.00;99.90;;;;;;12523286;28;20055;-35
2021/09/27 16:12:21;;;;;;;4.53;1.80;;;19.90;99.90;;;;;;12517912;28;20049;-35
2021/09/27 16:18:43;;;;;;;6.70;1.90;;;19.80;99.90;;;;;;12524032;28;20061;-41
2021/09/27 16:24:57;;;;;;;5.70;1.98;;;19.80;99.90;;;;;;12520927;28;20081;-40
2021/09/27 16:30:59;;;;;;;3.25;1.70;;;19.80;99.90;;;;;;12508820;28;20045;-36
2021/09/27 16:37:02;;;;;;;3.97;1.60;;;19.70;99.90;;;;;;12515472;28;20573;-35
2021/09/27 16:43:06;;;;;;;3.67;1.92;;;19.60;99.90;;;;;;12518439;28;20132;-35
2021/09/27 16:49:09;;;;;;;4.88;1.73;;;19.70;99.90;;;;;;12520920;28;20143;-35
2021/09/27 16:55:31;;;;;;;3.85;1.77;;;19.70;99.90;;;;;;12520355;28;20049;-35
2021/09/27 17:01:34;;;;;;;5.40;1.92;;;19.60;99.90;;;;;;12521973;28;20056;-36
2021/09/27 17:07:36;;;;;;;;;;;19.60;99.90;;;;;;12521077;28;20136;-35
2021/09/27 17:13:47;;;;;;;3.22;1.70;;;19.50;99.90;;;;;;12519737;28;19921;-39
2021/09/27 17:19:53;;;;;;;4.25;2.10;;;19.50;99.90;;;;;;12523933;28;20053;-39
2021/09/27 17:25:56;;;;;;;2.80;1.83;;;19.50;99.90;;;;;;12529095;28;20098;-39
2021/09/27 17:31:58;;;;;;;;;;;19.50;99.90;;;;;;12530425;28;20056;-35
2021/09/27 17:38:01;;;;;;;6.63;1.80;;;19.50;99.90;;;;;;12531288;28;19929;-41
2021/09/27 17:44:03;;;;;;;3.60;1.90;;;19.40;99.90;;;;;;12527726;28;20050;-36
2021/09/27 17:50:09;;;;;;;3.85;1.70;;;19.30;99.90;;;;;;12524543;28;20045;-35
2021/09/27 17:56:10;;;;;;;2.58;1.60;;;19.20;99.90;;;;;;12524996;28;20056;-35
2021/09/27 18:02:12;;;;;;;3.47;2.03;;;19.10;99.90;;;;;;12528592;28;20794;-35
2021/09/27 18:08:16;;;;;;;2.55;1.60;;;19.10;99.90;;;;;;12526747;28;20052;-35
2021/09/27 18:14:18;;;;;;;4.95;1.80;;;19.10;99.90;;;;;;12526607;28;20044;-41
2021/09/27 18:20:25;;;;;;;3.65;1.60;;;19.00;99.90;;;;;;12524740;28;20068;-39
2021/09/27 18:26:27;;;;;;;2.78;1.75;;;18.90;99.90;;;;;;12526901;28;20056;-40
2021/09/27 18:32:29;;;;;;;6.07;1.45;;;18.70;99.90;;;;;;12521848;28;20476;-39
2021/09/27 18:38:31;;;;;;;2.85;1.45;;;18.60;99.90;;;;;;12523890;28;20052;-39
2021/09/27 18:44:33;;;;;;;3.88;1.48;;;18.40;99.90;;;;;;12525670;28;20087;-35
2021/09/27 18:50:35;;;;;;;2.88;1.50;;;18.20;99.90;;;;;;12525367;28;20056;-35
2021/09/27 18:56:37;;;;;;;2.97;1.30;;;18.00;99.90;;;;;;12522716;28;20107;-35
2021/09/27 19:02:40;;;;;;;3.42;1.30;;;18.00;99.90;;;;;;12520380;28;20049;-40
2021/09/27 19:08:42;;;;;;;4.13;1.75;;;17.90;99.90;;;;;;12523946;28;20677;-35
2021/09/27 19:14:45;;;;;;;3.08;1.70;;;17.60;99.90;;;;;;12522761;28;20049;-35
2021/09/27 19:20:50;;;;;;;6.15;2.50;;;17.30;99.90;;;;;;12521436;28;20053;-39
2021/09/27 19:26:52;;;;;;;4.00;2.25;;;17.20;99.90;;;;;;12520516;28;20670;-39
2021/09/27 19:32:54;;;;;;;4.53;2.45;;;17.00;99.90;;;;;;12525483;28;20041;-35
2021/09/27 19:38:56;;;;;;;3.35;1.02;;;17.20;99.90;;;;;;12525473;28;20053;-39
2021/09/27 19:45:02;;;;;;;2.40;1.00;;;16.40;99.90;;;;;;12525990;28;20083;-41
2021/09/27 19:51:05;;;;;;;2.90;1.10;;;15.60;99.90;;;;;;12520034;28;20048;-35
2021/09/27 19:57:07;;;;;;;1.35;0.80;;;15.40;99.90;;;;;;12521951;28;20141;-35
2021/09/27 20:03:11;;;;;;;4.60;1.00;;;15.40;99.90;;;;;;12521699;28;20052;-39
2021/09/27 20:09:14;;;;;;;4.53;1.02;;;15.30;99.90;;;;;;12523463;28;20052;-39
2021/09/27 20:15:21;;;;;;;4.43;1.00;;;15.20;99.90;;;;;;12520972;28;20044;-35
2021/09/27 20:21:24;;;;;;;8.18;1.25;;;15.20;99.90;;;;;;12518797;28;20060;-36
2021/09/27 20:27:27;;;;;;;5.67;1.00;;;15.10;99.90;;;;;;12527259;28;20459;-39
2021/09/27 20:33:30;;;;;;;4.35;0.90;;;15.10;99.90;;;;;;12523658;28;20061;-40
2021/09/27 20:39:34;;;;;;;3.50;1.10;;;15.10;99.90;;;;;;12525565;28;20156;-40
2021/09/27 20:45:47;;;;;;;5.05;1.42;;;15.00;99.90;;;;;;12523910;28;20087;-35
2021/09/27 20:51:57;;;;;;;5.03;1.60;;;15.10;99.90;;;;;;12521257;28;20072;-35
2021/09/27 20:58:05;;;;;;;3.03;1.30;;;15.10;99.90;;;;;;12534599;28;20064;-35
2021/09/27 21:04:13;;;;;;;3.63;1.80;;;15.10;99.90;;;;;;12525302;28;20106;-39
2021/09/27 21:10:25;;;;;;;4.45;2.10;;;15.00;99.90;;;;;;12537478;28;20176;-36
2021/09/27 21:16:34;;;;;;;4.10;1.90;;;15.00;99.90;;;;;;12532937;28;20087;-41
2021/09/27 21:22:40;;;;;;;6.82;2.00;;;15.20;99.90;;;;;;12533393;28;20417;-35
2021/09/27 21:28:44;;;;;;;8.15;2.38;;;15.10;99.90;;;;;;12533295;28;20395;-40
2021/09/27 21:34:50;;;;;;;5.75;1.88;;;15.10;99.90;;;;;;12529655;28;20053;-40
2021/09/27 21:40:54;;;;;;;;;;;15.10;99.90;;;;;;12532806;28;20060;-35
2021/09/27 21:46:58;;;;;;;4.67;1.73;;;15.00;99.90;;;;;;12529215;28;19987;-36
2021/09/27 21:53:03;;;;;;;5.82;2.40;;;15.00;99.90;;;;;;12524888;28;20052;-41
2021/09/27 21:59:06;;;;;;;6.20;2.65;;;15.00;99.90;;;;;;12533218;28;20048;-40
2021/09/27 22:05:13;;;;;;;8.00;3.33;;;15.00;99.90;;;;;;12529862;28;20136;-40
2021/09/27 22:11:16;;;;;;;7.07;2.90;;;14.90;99.90;;;;;;12533525;28;20136;-35
2021/09/27 22:17:21;;;;;;;7.15;2.55;;;14.90;99.90;;;;;;12527711;28;20048;-36
2021/09/27 22:23:25;;;;;;;11.40;2.78;;;14.80;99.90;;;;;;12528700;28;20428;-39
2021/09/27 22:29:29;;;;;;;8.07;2.20;;;14.80;99.90;;;;;;12527149;28;20049;-35
2021/09/27 22:35:34;;;;;;;9.80;2.53;;;14.60;99.90;;;;;;12526492;28;20080;-39
2021/09/27 22:41:37;;;;;;;7.32;1.88;;;14.60;99.90;;;;;;12529316;28;20048;-40
2021/09/27 22:47:42;;;;;;;11.55;1.95;;;14.50;99.90;;;;;;12529106;28;20045;-40
2021/09/27 22:53:45;;;;;;;9.25;2.25;;;14.40;99.90;;;;;;12524850;28;20072;-35
2021/09/27 22:59:48;;;;;;;5.57;2.00;;;14.40;99.90;;;;;;12526936;28;20048;-35
2021/09/27 23:05:51;;;;;;;3.83;1.60;;;14.30;99.90;;;;;;12521728;28;20052;-35
2021/09/27 23:11:55;;;;;;;6.07;1.70;;;14.40;99.90;;;;;;12523589;28;20502;-39
2021/09/27 23:17:58;;;;;;;8.50;1.92;;;14.30;99.90;;;;;;12525580;28;20562;-36
2021/09/27 23:24:00;;;;;;;5.72;2.05;;;14.20;99.90;;;;;;12526094;28;20525;-35
2021/09/27 23:30:05;;;;;;;11.07;2.05;;;14.10;99.90;;;;;;12524169;28;20094;-40
2021/09/27 23:36:08;;;;;;;8.60;2.20;;;14.10;99.90;;;;;;12526991;28;20132;-39
2021/09/27 23:42:10;;;;;;;7.93;2.55;;;14.00;99.90;;;;;;12527550;28;20487;-35
2021/09/27 23:48:12;;;;;;;6.43;2.60;;;14.00;99.90;;;;;;12524568;28;20056;-35
2021/09/27 23:54:15;;;;;;;11.25;3.92;;;13.90;99.90;;;;;;12522926;28;20084;-40
